Latest Weather Observations for Cape Borda

IDS60801

Issued at 7:31 am CST Monday 3 August 2015 (issued every 30 minutes, with the page automatically refreshed every 10 minutes)

About weather observations | Map of weather stations | Latest weather observations for SA | Other Formats
Station Details ID: 022823 Name: CAPE BORDA Lat: -35.75 Lon: 136.60 Height: 158.0 m
Data from the previous 72 hours. | See also: Recent months at Cape Borda
Date/Time
CST
Temp
°C
App
Temp
°C
Dew
Point
Rel
Hum
%
Delta-T
°C
Wind Press
QNH
hPa
Press
MSL
hPa
Rain
since 9 am
mm
Dir
 
Spd
km/h
Gust
km/h
Spd
kts
Gust
kts
03/07:30am 9.4 2.4 6.2 80 1.5 SW 32 48 17 26 1023.9 - 0.6
03/07:04am 9.0 1.9 6.6 85 1.1 SSW 33 52 18 28 1023.7 - 0.6
03/07:00am 9.6 3.1 6.4 80 1.5 SSW 30 39 16 21 1023.7 - 0.6
03/06:30am 9.6 2.2 6.8 83 1.3 SSW 35 46 19 25 1023.3 - 0.6
03/06:00am 9.8 1.2 4.9 71 2.2 SW 39 54 21 29 1022.8 1023.0 0.6
03/05:30am 10.3 1.8 5.3 71 2.3 SW 39 56 21 30 1022.5 - 0.6
03/05:02am 9.6 2.4 7.7 88 0.9 SW 35 54 19 29 1022.5 - 0.6
03/05:00am 9.7 2.2 7.8 88 0.9 SW 37 54 20 29 1022.5 - 0.6
03/04:53am 9.7 2.4 7.2 84 1.2 SW 35 54 19 29 1022.3 - 0.6
03/04:30am 10.0 3.0 6.8 80 1.5 SW 33 44 18 24 1022.2 - 0.6
03/04:00am 9.6 1.7 7.9 89 0.8 SW 39 54 21 29 1022.2 - 0.6
03/03:49am 9.8 2.8 8.4 91 0.7 SW 35 54 19 29 1022.2 - 0.6
03/03:30am 10.3 3.9 8.5 89 0.9 SW 32 41 17 22 1022.0 - 0.4
03/03:00am 10.9 3.9 6.9 76 1.9 WSW 33 52 18 28 1022.2 1022.4 0.4
03/02:30am 10.5 2.2 7.6 82 1.4 WSW 41 63 22 34 1022.2 - 0.4
03/02:01am 10.3 3.2 6.5 77 1.8 SW 33 52 18 28 1022.0 - 0.4
03/02:00am 10.2 2.8 6.8 79 1.6 SW 35 52 19 28 1022.1 - 0.4
03/01:49am 10.9 3.3 5.7 70 2.4 WSW 35 56 19 30 1022.1 - 0.4
03/01:30am 11.2 2.5 4.1 61 3.2 WSW 39 56 21 30 1022.1 - 0.4
03/01:00am 10.8 3.2 5.9 72 2.3 WSW 35 56 19 30 1022.2 - 0.4
03/12:30am 10.8 1.2 4.6 65 2.8 SW 44 65 24 35 1022.0 - 0.4
03/12:18am 10.8 2.0 5.6 70 2.4 SW 41 69 22 37 1022.0 - 0.4
03/12:10am 10.5 3.7 6.7 77 1.8 WSW 32 50 17 27 1021.9 - 0.4
03/12:00am 10.7 3.8 7.4 80 1.6 WSW 33 46 18 25 1021.9 1022.1 0.4
 
Date/Time
CST
Temp
°C
App
Temp
°C
Dew
Point
Rel
Hum
%
Delta-T
°C
Wind Press
QNH
hPa
Press
MSL
hPa
Rain
since 9 am
mm
Dir
 
Spd
km/h
Gust
km/h
Spd
kts
Gust
kts
02/11:30pm 10.4 2.6 8.1 86 1.1 WSW 39 59 21 32 1021.8 - 0.4
02/11:04pm 11.1 3.3 8.3 83 1.4 WSW 39 65 21 35 1021.9 - 0.4
02/11:00pm 11.0 3.1 7.9 81 1.5 WSW 39 54 21 29 1021.8 - 0.4
02/10:30pm 10.6 3.2 8.4 86 1.1 WSW 37 57 20 31 1021.9 - 0.4
02/10:00pm 11.2 2.7 8.4 83 1.4 WSW 43 63 23 34 1021.8 - 0.4
02/09:30pm 11.1 3.7 6.9 75 2.0 WSW 35 56 19 30 1021.6 - 0.4
02/09:23pm 11.1 3.3 6.7 74 2.1 WSW 37 56 20 30 1021.5 - 0.4
02/09:00pm 11.0 3.8 9.0 87 1.0 WSW 37 54 20 29 1021.6 1021.7 0.4
02/08:30pm 10.3 3.1 9.1 92 0.6 WSW 37 57 20 31 1021.4 - 0.4
02/08:07pm 11.5 4.0 7.8 78 1.8 WSW 37 57 20 31 1021.0 - 0.2
02/08:00pm 11.6 3.6 7.5 76 2.0 WSW 39 56 21 30 1021.1 - 0.2
02/07:37pm 11.8 4.7 7.9 77 1.9 WSW 35 54 19 29 1021.0 - 0.2
02/07:30pm 11.7 4.2 7.8 77 1.9 W 37 52 20 28 1020.9 - 0.2
02/07:00pm 11.9 4.1 6.7 70 2.5 WSW 37 57 20 31 1020.5 - 0.2
02/06:30pm 11.9 4.0 6.0 67 2.8 WSW 37 57 20 31 1020.3 - 0.2
02/06:00pm 11.8 3.1 5.8 66 2.8 WSW 41 63 22 34 1020.0 1020.2 0.2
02/05:31pm 11.6 2.9 5.8 67 2.7 WSW 41 59 22 32 1019.9 - 0.2
02/05:30pm 11.6 2.4 5.6 66 2.8 WSW 43 59 23 32 1019.9 - 0.2
02/05:00pm 11.7 3.1 4.7 62 3.2 WSW 39 61 21 33 1019.6 - 0.2
02/04:30pm 12.1 3.9 4.9 61 3.3 WSW 37 59 20 32 1019.4 - 0.2
02/04:00pm 12.5 3.6 5.2 61 3.4 WSW 41 59 22 32 1019.3 - 0.2
02/03:30pm 12.5 3.4 6.9 68 2.7 WSW 44 63 24 34 1019.0 - 0.2
02/03:04pm 12.9 4.9 7.4 69 2.7 WSW 39 61 21 33 1018.8 - 0.2
02/03:00pm 12.8 4.8 7.5 70 2.6 WSW 39 56 21 30 1018.8 1019.0 0.2
02/02:30pm 12.6 4.5 7.0 68 2.7 WSW 39 59 21 32 1018.7 - 0.2
02/02:03pm 12.6 4.6 7.3 70 2.6 WSW 39 57 21 31 1018.7 - 0.2
02/02:00pm 12.4 3.8 6.6 68 2.8 WSW 41 57 22 31 1018.7 - 0.2
02/01:45pm 13.1 6.4 8.3 72 2.4 WSW 33 52 18 28 1018.8 - 0.2
02/01:30pm 12.8 5.1 7.0 68 2.8 W 37 52 20 28 1018.7 - 0.2
02/01:15pm 12.3 4.0 7.8 74 2.2 WSW 41 59 22 32 1018.7 - 0.2
02/01:00pm 13.3 4.5 7.2 66 3.0 WSW 43 57 23 31 1018.6 - 0.2
02/12:30pm 13.3 5.6 7.2 66 3.0 WSW 37 59 20 32 1018.8 - 0.2
02/12:01pm 12.9 5.1 6.7 66 3.0 W 37 56 20 30 1019.2 - 0.2
02/12:00pm 12.8 4.6 6.6 66 3.0 W 39 56 21 30 1019.1 1019.3 0.2
02/11:30am 12.7 5.8 7.4 70 2.6 W 33 56 18 30 1019.3 - 0.2
02/11:25am 12.6 5.1 7.9 73 2.3 W 37 56 20 30 1019.4 - 0.2
02/11:00am 11.3 3.9 8.5 83 1.4 W 37 50 20 27 1019.5 - 0.2
02/10:30am 12.7 4.1 6.7 67 2.9 W 41 54 22 29 1019.2 - 0.2
02/10:07am 12.2 5.3 6.6 68 2.7 W 32 50 17 27 1019.1 - 0.2
02/10:00am 11.4 4.4 7.0 74 2.1 W 33 50 18 27 1019.0 - 0.2
02/09:30am 11.5 5.2 7.4 76 2.0 W 30 48 16 26 1019.0 - 0.2
02/09:08am 11.2 4.2 7.0 75 2.0 W 33 56 18 30 1018.8 - 0.0
02/09:00am 11.2 4.7 6.6 73 2.2 W 30 43 16 23 1018.8 1019.0 0.0
02/08:31am 10.8 4.5 5.9 72 2.3 W 28 52 15 28 1018.8 - 0.0
02/08:30am 10.9 5.0 5.7 70 2.4 W 26 41 14 22 1018.7 - 0.0
02/08:04am 10.4 4.1 5.6 72 2.2 W 28 46 15 25 1018.6 - 0.0
02/08:00am 10.2 4.1 6.6 78 1.7 W 28 43 15 23 1018.5 - 0.0
02/07:35am 10.3 3.5 6.7 78 1.7 WSW 32 54 17 29 1018.3 - 0.0
02/07:30am 9.9 3.2 5.8 75 1.9 W 30 43 16 23 1018.3 - 0.0
02/07:00am 8.6 1.2 6.9 89 0.8 W 35 56 19 30 1018.2 - 0.0
02/06:53am 10.3 3.3 6.2 76 1.9 W 32 56 17 30 1018.0 - 0.0
02/06:30am 9.6 3.1 6.4 80 1.5 WSW 30 44 16 24 1017.8 - 0.0
02/06:20am 9.7 3.6 6.5 80 1.5 W 28 48 15 26 1017.7 - 0.0
02/06:00am 9.6 3.4 7.7 88 0.9 W 30 43 16 23 1017.7 1017.9 0.0
02/05:30am 8.7 3.7 6.3 85 1.1 W 22 35 12 19 1017.5 - 0.0
02/05:18am 9.7 2.9 5.3 74 2.0 W 30 50 16 27 1017.4 - 0.0
02/05:00am 9.2 2.9 5.9 80 1.5 W 28 35 15 19 1017.5 - 0.0
02/04:30am 9.3 2.5 5.1 75 1.9 W 30 41 16 22 1017.5 - 0.0
02/04:00am 9.4 2.6 3.2 65 2.7 W 28 41 15 22 1017.6 - 0.0
02/03:30am 9.0 2.7 4.0 71 2.2 W 26 39 14 21 1017.8 - 0.0
02/03:00am 8.7 3.4 2.8 66 2.5 W 20 32 11 17 1018.0 1018.2 0.0
02/02:30am 8.9 2.2 3.4 68 2.4 WSW 28 44 15 24 1018.3 - 0.0
02/02:00am 8.9 2.9 3.4 68 2.4 WSW 24 37 13 20 1018.2 - 0.0
02/01:30am 9.7 3.8 1.6 57 3.4 WSW 22 33 12 18 1018.3 - 0.0
02/01:00am 9.5 3.4 2.7 62 2.9 WSW 24 33 13 18 1018.3 - 0.0
02/12:30am 9.4 3.7 4.7 72 2.1 SW 24 37 13 20 1018.4 - 0.0
02/12:00am 9.4 3.4 3.4 66 2.6 WSW 24 33 13 18 1018.6 1018.8 0.0
 
Date/Time
CST
Temp
°C
App
Temp
°C
Dew
Point
Rel
Hum
%
Delta-T
°C
Wind Press
QNH
hPa
Press
MSL
hPa
Rain
since 9 am
mm
Dir
 
Spd
km/h
Gust
km/h
Spd
kts
Gust
kts
01/11:30pm 9.7 4.9 2.7 61 3.0 WSW 17 28 9 15 1018.5 - 0.0
01/11:00pm 9.8 4.3 1.7 57 3.4 WSW 20 30 11 16 1018.5 - 0.0
01/10:30pm 9.5 4.8 3.0 64 2.8 WSW 17 28 9 15 1018.8 - 0.0
01/10:00pm 9.2 5.2 2.9 65 2.7 W 13 19 7 10 1018.6 - 0.0
01/09:30pm 8.9 4.8 2.5 64 2.7 WSW 13 20 7 11 1018.6 - 0.0
01/09:00pm 8.6 4.5 2.2 64 2.7 SW 13 17 7 9 1018.5 1018.7 0.0
01/08:30pm 8.3 4.2 2.1 65 2.6 SW 13 19 7 10 1018.4 - 0.0
01/08:00pm 8.2 4.4 2.0 65 2.6 SW 11 15 6 8 1018.2 - 0.0
01/07:30pm 7.7 4.1 3.0 72 2.0 SSW 11 13 6 7 1018.1 - 0.0
01/07:00pm 7.4 4.1 2.6 71 2.0 SSW 9 13 5 7 1017.8 - 0.0
01/06:30pm 7.5 4.0 3.5 76 1.7 S 11 15 6 8 1017.6 - 0.0
01/06:00pm 7.7 3.9 3.8 76 1.7 S 13 13 7 7 1017.1 1017.3 0.0
01/05:30pm 7.8 4.5 4.4 79 1.5 S 11 11 6 6 1016.7 - 0.0
01/05:00pm 8.3 5.4 4.5 77 1.7 S 9 11 5 6 1016.8 - 0.0
01/04:30pm 8.7 5.7 4.2 73 2.0 S 9 11 5 6 1016.6 - 0.0
01/04:00pm 9.1 6.1 4.1 71 2.2 S 9 13 5 7 1016.4 - 0.0
01/03:30pm 9.3 6.2 3.8 68 2.4 SSE 9 11 5 6 1016.3 - 0.0
01/03:00pm 9.2 6.6 4.0 70 2.3 S 7 9 4 5 1016.3 1016.5 0.0
01/02:30pm 9.3 6.6 3.6 67 2.5 SSE 7 11 4 6 1016.2 - 0.0
01/02:00pm 9.4 5.8 2.9 64 2.8 SSE 11 15 6 8 1016.6 - 0.0
01/01:30pm 9.5 5.9 3.0 64 2.8 SSE 11 15 6 8 1016.7 - 0.0
01/01:00pm 9.5 4.7 2.5 61 3.0 SSE 17 20 9 11 1016.5 - 0.0
01/12:30pm 9.6 6.0 3.2 64 2.8 SSE 11 17 6 9 1016.9 - 0.0
01/12:00pm 9.7 6.6 3.8 66 2.6 S 9 13 5 7 1017.8 1018.0 0.0
01/11:30am 9.6 6.3 4.5 70 2.3 S 11 15 6 8 1018.3 - 0.0
01/11:00am 9.3 6.7 4.1 70 2.3 S 7 11 4 6 1017.7 - 0.0
01/10:30am 9.0 6.4 4.0 71 2.2 S 7 13 4 7 1018.1 - 0.0
01/10:00am 8.9 5.4 3.4 68 2.4 SSE 11 15 6 8 1017.0 - 0.0
01/09:30am 8.6 4.6 3.0 68 2.4 SSE 13 17 7 9 1016.5 - 0.0
01/09:00am 8.7 4.3 2.9 67 2.5 S 15 22 8 12 1016.9 1017.1 1.6
01/08:30am 8.6 3.5 3.0 68 2.4 S 19 28 10 15 1016.2 - 1.6
01/08:00am 8.6 4.4 3.8 72 2.1 S 15 22 8 12 1015.9 - 1.6
01/07:30am 8.7 3.8 3.9 72 2.1 S 19 24 10 13 1015.6 - 1.6
01/07:00am 9.2 4.3 4.0 70 2.3 SSW 19 28 10 15 1015.7 - 1.6
01/06:30am 9.0 4.2 4.8 75 1.9 SSW 19 26 10 14 1015.2 - 1.6
01/06:00am 9.0 4.2 5.5 79 1.6 S 20 30 11 16 1014.2 1014.3 1.6
01/05:30am 9.2 3.8 6.2 81 1.4 S 24 35 13 19 1013.8 - 1.6
01/05:00am 9.2 3.8 6.2 81 1.4 SSW 24 33 13 18 1013.4 - 1.6
01/04:30am 9.4 3.5 7.3 87 1.0 SSW 28 41 15 22 1013.3 - 1.6
01/04:00am 9.3 3.8 7.6 89 0.8 SSW 26 35 14 19 1013.0 - 1.6
01/03:30am 9.5 3.1 8.7 95 0.4 SSW 32 43 17 23 1012.4 - 1.4
01/03:19am 9.7 3.4 8.9 95 0.4 S 32 50 17 27 1012.1 - 1.4
01/03:00am 10.0 3.6 9.2 95 0.4 SSW 33 50 18 27 1012.2 1012.4 1.4
01/02:39am 11.1 4.6 9.1 87 1.0 SW 33 54 18 29 1012.1 - 1.4
01/02:30am 11.3 4.8 8.9 85 1.2 SW 33 46 18 25 1012.1 - 1.4
01/02:18am 11.0 4.4 7.7 80 1.6 SW 32 50 17 27 1012.1 - 1.4
01/02:00am 10.7 3.9 7.6 81 1.5 SW 33 48 18 26 1012.0 - 1.4
01/01:30am 10.4 4.9 9.2 92 0.6 SW 28 41 15 22 1011.6 - 1.4
01/01:00am 10.3 5.7 9.7 96 0.3 SSW 24 32 13 17 1011.7 - 1.4
01/12:30am 10.6 4.4 10.0 96 0.3 SSW 33 44 18 24 1011.4 - 1.0
01/12:27am 10.6 4.1 10.2 97 0.2 SSW 35 44 19 24 1011.3 - 1.0
01/12:06am 12.0 5.2 11.8 99 0.1 SW 39 46 21 25 1010.9 - 0.4
01/12:05am 12.2 5.1 12.2 100 0.0 W 41 48 22 26 1010.8 - 0.4
01/12:03am 13.2 7.5 13.0 99 0.1 NW 35 54 19 29 1010.6 - 0.2
01/12:00am 13.4 7.7 13.0 97 0.2 NW 35 48 19 26 1010.3 1010.4 0.0
 
Date/Time
CST
Temp
°C
App
Temp
°C
Dew
Point
Rel
Hum
%
Delta-T
°C
Wind Press
QNH
hPa
Press
MSL
hPa
Rain
since 9 am
mm
Dir
 
Spd
km/h
Gust
km/h
Spd
kts
Gust
kts
31/11:30pm 13.4 6.9 12.9 97 0.3 NW 39 54 21 29 1010.5 - 0.0
31/11:00pm 13.0 7.1 12.3 95 0.4 NW 35 50 19 27 1010.8 - 0.0
31/10:30pm 13.1 7.4 11.8 92 0.7 NNW 33 48 18 26 1011.1 - 0.0
31/10:00pm 13.1 7.2 10.6 85 1.3 NNW 32 44 17 24 1011.1 - 0.0
31/09:30pm 13.2 8.2 10.9 86 1.2 NNW 28 44 15 24 1011.2 - 0.0
31/09:00pm 13.5 7.7 10.7 83 1.5 NNW 32 43 17 23 1011.3 1011.5 0.0
31/08:30pm 13.4 8.4 10.8 84 1.4 NNW 28 39 15 21 1011.6 - 0.0
31/08:00pm 13.4 9.1 10.7 84 1.4 NNW 24 33 13 18 1012.1 - 0.0
31/07:30pm 13.4 8.2 10.3 81 1.6 NNW 28 39 15 21 1012.3 - 0.0
31/07:00pm 13.4 7.5 10.3 81 1.6 NNW 32 43 17 23 1012.3 - 0.0
31/06:30pm 13.3 8.0 10.0 80 1.7 NNW 28 39 15 21 1012.2 - 0.0
31/06:00pm 13.3 8.5 10.4 82 1.5 NNW 26 39 14 21 1012.4 1012.6 0.0
31/05:30pm 12.9 9.1 11.2 89 0.9 N 22 30 12 16 1012.5 - 0.0
31/05:00pm 12.8 8.5 10.7 87 1.1 NNW 24 35 13 19 1012.8 - 0.0
31/04:30pm 12.5 8.2 10.6 88 1.0 N 24 33 13 18 1012.9 - 0.0
31/04:00pm 12.4 8.0 10.3 87 1.1 N 24 35 13 19 1013.2 - 0.0
31/03:30pm 12.4 7.8 9.7 83 1.4 N 24 35 13 19 1013.6 - 0.0
31/03:00pm 12.4 7.6 9.0 80 1.7 N 24 32 13 17 1013.8 1014.0 0.0
31/02:30pm 12.5 8.2 9.2 80 1.7 N 22 32 12 17 1014.3 - 0.0
31/02:00pm 12.4 6.7 8.2 75 2.1 N 28 39 15 21 1015.2 - 0.0
31/01:30pm 12.2 6.2 7.0 70 2.5 N 28 39 15 21 1015.4 - 0.0
31/01:00pm 12.3 6.3 6.9 69 2.6 N 28 39 15 21 1016.0 - 0.0
31/12:30pm 12.4 6.5 5.6 63 3.2 N 26 41 14 22 1016.7 - 0.0
31/12:00pm 12.4 6.2 4.3 57 3.7 NNW 26 35 14 19 1017.2 1017.4 0.0
31/11:30am 11.9 5.8 4.7 61 3.3 NNW 26 35 14 19 1017.8 - 0.0
31/11:00am 11.7 5.4 3.9 59 3.5 N 26 37 14 20 1018.2 - 0.0
31/10:30am 10.7 5.5 5.3 69 2.5 N 22 32 12 17 1018.7 - 0.0
31/10:00am 10.5 4.8 4.8 68 2.6 N 24 33 13 18 1018.9 - 0.0
31/09:30am 10.4 3.8 4.4 66 2.7 N 28 39 15 21 1019.1 - 0.0
31/09:00am 10.5 5.2 3.2 60 3.2 N 20 28 11 15 1019.3 1019.5 1.4
31/08:30am 10.1 4.8 3.2 62 3.0 N 20 30 11 16 1019.7 - 1.4
31/08:00am 9.8 5.1 3.4 64 2.8 N 17 28 9 15 1019.9 - 1.4

Other Formats:

Comma delimited format used in spreadsheet applications
http://www.bom.gov.au/fwo/IDS60801/IDS60801.95805.axf

JavaScript Object Notation format (JSON) in row-major order
http://www.bom.gov.au/fwo/IDS60801/IDS60801.95805.json